sensor_id;sensor_type;location;lat;lon;timestamp;pressure;altitude;pressure_sealevel;temperature;humidity
74270;BME280;62754;48.252;11.654;2022-11-18T00:02:05;94544.81;;;7.80;86.81
74270;BME280;62754;48.252;11.654;2022-11-18T00:04:31;94525.50;;;7.86;86.39
74270;BME280;62754;48.252;11.654;2022-11-18T00:06:56;94517.22;;;7.92;86.21
74270;BME280;62754;48.252;11.654;2022-11-18T00:09:22;94523.16;;;7.92;86.51
74270;BME280;62754;48.252;11.654;2022-11-18T00:11:48;94524.25;;;7.90;86.29
74270;BME280;62754;48.252;11.654;2022-11-18T00:14:19;94512.69;;;8.03;86.39
74270;BME280;62754;48.252;11.654;2022-11-18T00:16:50;94516.34;;;8.01;86.40
74270;BME280;62754;48.252;11.654;2022-11-18T00:19:17;94506.09;;;8.01;86.44
74270;BME280;62754;48.252;11.654;2022-11-18T00:21:43;94516.78;;;7.96;87.12
74270;BME280;62754;48.252;11.654;2022-11-18T00:24:09;94512.63;;;7.95;86.31
74270;BME280;62754;48.252;11.654;2022-11-18T00:26:35;94516.22;;;8.02;85.52
74270;BME280;62754;48.252;11.654;2022-11-18T00:29:01;94512.03;;;8.01;86.06
74270;BME280;62754;48.252;11.654;2022-11-18T00:31:27;94516.34;;;8.01;86.52
74270;BME280;62754;48.252;11.654;2022-11-18T00:33:53;94503.16;;;7.96;86.97
74270;BME280;62754;48.252;11.654;2022-11-18T00:36:18;94504.94;;;7.95;87.25
74270;BME280;62754;48.252;11.654;2022-11-18T00:38:44;94505.38;;;7.91;87.21
74270;BME280;62754;48.252;11.654;2022-11-18T00:41:13;94505.59;;;7.97;86.95
74270;BME280;62754;48.252;11.654;2022-11-18T00:43:39;94498.72;;;7.98;87.11
74270;BME280;62754;48.252;11.654;2022-11-18T00:46:07;94504.78;;;7.97;87.44
74270;BME280;62754;48.252;11.654;2022-11-18T00:48:33;94497.31;;;7.86;87.80
74270;BME280;62754;48.252;11.654;2022-11-18T00:51:08;94498.91;;;7.87;87.91
74270;BME280;62754;48.252;11.654;2022-11-18T00:53:34;94488.97;;;7.84;87.86
74270;BME280;62754;48.252;11.654;2022-11-18T00:55:59;94486.16;;;7.77;88.73
74270;BME280;62754;48.252;11.654;2022-11-18T00:58:25;94492.09;;;7.78;87.88
74270;BME280;62754;48.252;11.654;2022-11-18T01:00:51;94485.84;;;7.80;87.61
74270;BME280;62754;48.252;11.654;2022-11-18T01:03:18;94490.41;;;7.86;88.32
74270;BME280;62754;48.252;11.654;2022-11-18T01:05:44;94487.84;;;7.86;88.21
74270;BME280;62754;48.252;11.654;2022-11-18T01:08:11;94484.78;;;7.83;87.99
74270;BME280;62754;48.252;11.654;2022-11-18T01:10:38;94482.94;;;7.75;88.18
74270;BME280;62754;48.252;11.654;2022-11-18T01:13:06;94485.25;;;7.68;88.48
74270;BME280;62754;48.252;11.654;2022-11-18T01:15:38;94494.88;;;7.66;88.62
74270;BME280;62754;48.252;11.654;2022-11-18T01:18:04;94489.81;;;7.75;88.29
74270;BME280;62754;48.252;11.654;2022-11-18T01:20:31;94483.59;;;7.77;88.33
74270;BME280;62754;48.252;11.654;2022-11-18T01:22:57;94483.59;;;7.77;88.14
74270;BME280;62754;48.252;11.654;2022-11-18T01:25:24;94483.00;;;7.65;88.73
74270;BME280;62754;48.252;11.654;2022-11-18T01:27:49;94483.97;;;7.64;89.22
74270;BME280;62754;48.252;11.654;2022-11-18T01:30:15;94484.81;;;7.55;89.89
74270;BME280;62754;48.252;11.654;2022-11-18T01:32:42;94481.81;;;7.60;89.19
74270;BME280;62754;48.252;11.654;2022-11-18T01:35:08;94479.41;;;7.58;89.48
74270;BME280;62754;48.252;11.654;2022-11-18T01:37:34;94479.53;;;7.57;90.23
74270;BME280;62754;48.252;11.654;2022-11-18T01:40:00;94473.25;;;7.51;90.57
74270;BME280;62754;48.252;11.654;2022-11-18T01:42:26;94458.25;;;7.56;89.82
74270;BME280;62754;48.252;11.654;2022-11-18T01:48:25;94449.66;;;7.48;89.76
74270;BME280;62754;48.252;11.654;2022-11-18T01:51:02;94453.47;;;7.44;91.03
74270;BME280;62754;48.252;11.654;2022-11-18T01:53:32;94442.41;;;7.43;90.57
74270;BME280;62754;48.252;11.654;2022-11-18T01:56:01;94442.44;;;7.34;91.17
74270;BME280;62754;48.252;11.654;2022-11-18T01:58:34;94447.84;;;7.31;91.76
74270;BME280;62754;48.252;11.654;2022-11-18T02:01:03;94458.91;;;7.31;91.89
74270;BME280;62754;48.252;11.654;2022-11-18T02:03:29;94457.91;;;7.42;91.48
74270;BME280;62754;48.252;11.654;2022-11-18T02:05:57;94457.78;;;7.43;90.92
74270;BME280;62754;48.252;11.654;2022-11-18T02:08:24;94469.22;;;7.49;91.08
74270;BME280;62754;48.252;11.654;2022-11-18T02:10:50;94471.22;;;7.45;90.18
74270;BME280;62754;48.252;11.654;2022-11-18T02:13:16;94466.81;;;7.38;91.18
74270;BME280;62754;48.252;11.654;2022-11-18T02:18:32;94466.28;;;7.44;91.16
74270;BME280;62754;48.252;11.654;2022-11-18T02:21:32;94476.75;;;7.50;91.02
74270;BME280;62754;48.252;11.654;2022-11-18T02:25:02;94476.34;;;7.45;90.69
74270;BME280;62754;48.252;11.654;2022-11-18T02:27:39;94468.16;;;7.42;90.45
74270;BME280;62754;48.252;11.654;2022-11-18T02:30:12;94471.69;;;7.41;90.90
74270;BME280;62754;48.252;11.654;2022-11-18T02:33:03;94470.28;;;7.46;90.52
74270;BME280;62754;48.252;11.654;2022-11-18T02:35:40;94466.78;;;7.47;90.28
74270;BME280;62754;48.252;11.654;2022-11-18T02:38:18;94465.97;;;7.47;90.50
74270;BME280;62754;48.252;11.654;2022-11-18T02:40:52;94462.75;;;7.45;90.64
74270;BME280;62754;48.252;11.654;2022-11-18T02:43:30;94464.22;;;7.47;90.48
74270;BME280;62754;48.252;11.654;2022-11-18T02:46:01;94461.28;;;7.42;90.72
74270;BME280;62754;48.252;11.654;2022-11-18T02:48:30;94468.03;;;7.43;90.62
74270;BME280;62754;48.252;11.654;2022-11-18T02:50:57;94464.00;;;7.41;90.61
74270;BME280;62754;48.252;11.654;2022-11-18T02:53:27;94463.84;;;7.42;90.53
74270;BME280;62754;48.252;11.654;2022-11-18T02:55:55;94464.94;;;7.40;90.54
74270;BME280;62754;48.252;11.654;2022-11-18T02:58:22;94457.53;;;7.37;90.71
74270;BME280;62754;48.252;11.654;2022-11-18T03:00:59;94460.91;;;7.37;90.87
74270;BME280;62754;48.252;11.654;2022-11-18T03:08:46;94458.59;;;7.44;90.48
74270;BME280;62754;48.252;11.654;2022-11-18T03:11:27;94460.84;;;7.47;90.85
74270;BME280;62754;48.252;11.654;2022-11-18T03:16:36;94463.63;;;7.36;91.04
74270;BME280;62754;48.252;11.654;2022-11-18T03:21:36;94465.75;;;7.40;90.96
74270;BME280;62754;48.252;11.654;2022-11-18T03:26:39;94462.66;;;7.37;91.81
74270;BME280;62754;48.252;11.654;2022-11-18T03:29:20;94468.00;;;7.26;92.00
74270;BME280;62754;48.252;11.654;2022-11-18T03:31:48;94467.28;;;7.33;91.38
74270;BME280;62754;48.252;11.654;2022-11-18T03:34:30;94467.59;;;7.48;90.71
74270;BME280;62754;48.252;11.654;2022-11-18T03:37:00;94457.19;;;7.49;90.61
74270;BME280;62754;48.252;11.654;2022-11-18T03:39:31;94468.03;;;7.43;91.14
74270;BME280;62754;48.252;11.654;2022-11-18T03:42:13;94478.06;;;7.27;92.50
74270;BME280;62754;48.252;11.654;2022-11-18T03:44:51;94476.19;;;7.29;92.14
74270;BME280;62754;48.252;11.654;2022-11-18T03:47:23;94480.09;;;7.33;91.91
74270;BME280;62754;48.252;11.654;2022-11-18T03:50:25;94482.13;;;7.30;92.03
74270;BME280;62754;48.252;11.654;2022-11-18T03:52:50;94479.78;;;7.36;91.68
74270;BME280;62754;48.252;11.654;2022-11-18T03:55:22;94485.63;;;7.29;91.88
74270;BME280;62754;48.252;11.654;2022-11-18T04:00:47;94494.97;;;7.20;93.12
74270;BME280;62754;48.252;11.654;2022-11-18T04:03:15;94494.78;;;7.31;92.78
74270;BME280;62754;48.252;11.654;2022-11-18T04:05:42;94509.13;;;7.14;93.20
74270;BME280;62754;48.252;11.654;2022-11-18T04:08:09;94507.91;;;7.18;93.03
74270;BME280;62754;48.252;11.654;2022-11-18T04:10:47;94509.53;;;7.19;92.94
74270;BME280;62754;48.252;11.654;2022-11-18T04:13:19;94510.34;;;7.20;92.18
74270;BME280;62754;48.252;11.654;2022-11-18T04:15:47;94511.16;;;7.11;92.73
74270;BME280;62754;48.252;11.654;2022-11-18T04:18:13;94516.16;;;7.12;92.70
74270;BME280;62754;48.252;11.654;2022-11-18T04:20:39;94515.81;;;6.98;93.55
74270;BME280;62754;48.252;11.654;2022-11-18T04:23:06;94523.31;;;7.09;92.88
74270;BME280;62754;48.252;11.654;2022-11-18T04:25:31;94526.53;;;7.11;92.24
74270;BME280;62754;48.252;11.654;2022-11-18T04:27:57;94523.31;;;7.09;92.10
74270;BME280;62754;48.252;11.654;2022-11-18T04:30:22;94513.34;;;7.06;91.25
74270;BME280;62754;48.252;11.654;2022-11-18T04:32:48;94511.75;;;7.05;90.14
74270;BME280;62754;48.252;11.654;2022-11-18T04:35:14;94502.03;;;7.08;89.26
74270;BME280;62754;48.252;11.654;2022-11-18T04:37:40;94500.03;;;7.02;88.76
74270;BME280;62754;48.252;11.654;2022-11-18T04:40:06;94504.75;;;6.97;88.87
74270;BME280;62754;48.252;11.654;2022-11-18T04:42:32;94505.00;;;7.04;89.74
74270;BME280;62754;48.252;11.654;2022-11-18T04:44:58;94499.63;;;6.97;89.20
74270;BME280;62754;48.252;11.654;2022-11-18T04:47:24;94504.34;;;7.02;90.04
74270;BME280;62754;48.252;11.654;2022-11-18T04:49:50;94511.97;;;7.11;89.04
74270;BME280;62754;48.252;11.654;2022-11-18T04:52:16;94504.06;;;6.95;89.23
74270;BME280;62754;48.252;11.654;2022-11-18T04:54:41;94491.66;;;7.00;90.26
74270;BME280;62754;48.252;11.654;2022-11-18T04:57:07;94504.34;;;7.02;89.60
74270;BME280;62754;48.252;11.654;2022-11-18T04:59:33;94497.72;;;6.99;90.47
74270;BME280;62754;48.252;11.654;2022-11-18T05:01:59;94493.94;;;7.03;90.40
74270;BME280;62754;48.252;11.654;2022-11-18T05:04:28;94490.69;;;7.11;90.49
74270;BME280;62754;48.252;11.654;2022-11-18T05:06:53;94492.72;;;7.07;90.06
74270;BME280;62754;48.252;11.654;2022-11-18T05:09:19;94495.81;;;7.11;90.13
74270;BME280;62754;48.252;11.654;2022-11-18T05:11:45;94483.69;;;7.03;90.67
74270;BME280;62754;48.252;11.654;2022-11-18T05:14:13;94492.81;;;7.15;89.86
74270;BME280;62754;48.252;11.654;2022-11-18T05:16:42;94490.13;;;7.17;89.76
74270;BME280;62754;48.252;11.654;2022-11-18T05:19:08;94502.66;;;7.20;89.97
74270;BME280;62754;48.252;11.654;2022-11-18T05:21:34;94496.28;;;7.24;90.22
74270;BME280;62754;48.252;11.654;2022-11-18T05:24:00;94500.31;;;7.27;89.61
74270;BME280;62754;48.252;11.654;2022-11-18T05:26:26;94496.00;;;7.27;89.79
74270;BME280;62754;48.252;11.654;2022-11-18T05:28:52;94498.25;;;7.40;89.33
74270;BME280;62754;48.252;11.654;2022-11-18T05:31:18;94490.03;;;7.36;89.56
74270;BME280;62754;48.252;11.654;2022-11-18T05:33:44;94497.03;;;7.34;88.53
74270;BME280;62754;48.252;11.654;2022-11-18T05:36:13;94492.28;;;7.22;89.10
74270;BME280;62754;48.252;11.654;2022-11-18T05:38:40;94494.13;;;7.29;88.85
74270;BME280;62754;48.252;11.654;2022-11-18T05:41:06;94499.78;;;7.23;89.51
74270;BME280;62754;48.252;11.654;2022-11-18T05:43:32;94494.97;;;7.20;89.10
74270;BME280;62754;48.252;11.654;2022-11-18T05:45:59;94495.91;;;7.19;89.57
74270;BME280;62754;48.252;11.654;2022-11-18T05:48:24;94493.75;;;7.14;88.57
74270;BME280;62754;48.252;11.654;2022-11-18T05:50:51;94501.41;;;7.24;88.68
74270;BME280;62754;48.252;11.654;2022-11-18T05:53:19;94502.78;;;7.18;87.79
74270;BME280;62754;48.252;11.654;2022-11-18T05:58:50;94502.22;;;7.25;87.84
74270;BME280;62754;48.252;11.654;2022-11-18T06:01:20;94512.75;;;7.22;87.48
74270;BME280;62754;48.252;11.654;2022-11-18T06:03:48;94518.31;;;7.17;87.41
74270;BME280;62754;48.252;11.654;2022-11-18T06:06:16;94508.06;;;7.17;87.58
74270;BME280;62754;48.252;11.654;2022-11-18T06:08:49;94514.81;;;7.08;87.23
74270;BME280;62754;48.252;11.654;2022-11-18T06:11:16;94511.16;;;7.11;86.72
74270;BME280;62754;48.252;11.654;2022-11-18T06:14:03;94513.72;;;7.11;86.83
74270;BME280;62754;48.252;11.654;2022-11-18T06:16:31;94513.06;;;7.09;87.01
74270;BME280;62754;48.252;11.654;2022-11-18T06:18:58;94521.28;;;7.03;87.20
74270;BME280;62754;48.252;11.654;2022-11-18T06:21:24;94522.97;;;6.94;87.76
74270;BME280;62754;48.252;11.654;2022-11-18T06:23:50;94529.41;;;6.98;88.24
74270;BME280;62754;48.252;11.654;2022-11-18T06:26:17;94529.25;;;7.00;86.98
74270;BME280;62754;48.252;11.654;2022-11-18T06:28:44;94536.78;;;7.11;86.50
74270;BME280;62754;48.252;11.654;2022-11-18T06:31:12;94542.28;;;7.16;86.10
74270;BME280;62754;48.252;11.654;2022-11-18T06:33:37;94534.22;;;7.11;86.73
74270;BME280;62754;48.252;11.654;2022-11-18T06:36:03;94542.06;;;7.09;86.69
74270;BME280;62754;48.252;11.654;2022-11-18T06:38:29;94539.09;;;7.04;86.70
74270;BME280;62754;48.252;11.654;2022-11-18T06:41:01;94550.44;;;7.02;87.59
74270;BME280;62754;48.252;11.654;2022-11-18T06:43:27;94557.13;;;7.12;86.88
74270;BME280;62754;48.252;11.654;2022-11-18T06:45:57;94550.81;;;7.07;87.13
74270;BME280;62754;48.252;11.654;2022-11-18T06:48:23;94559.03;;;7.10;86.57
74270;BME280;62754;48.252;11.654;2022-11-18T06:50:48;94567.09;;;7.15;87.26
74270;BME280;62754;48.252;11.654;2022-11-18T06:53:14;94567.38;;;7.12;87.88
74270;BME280;62754;48.252;11.654;2022-11-18T06:55:40;94573.44;;;7.11;87.74
74270;BME280;62754;48.252;11.654;2022-11-18T06:58:06;94576.00;;;7.11;87.87
74270;BME280;62754;48.252;11.654;2022-11-18T07:00:31;94574.13;;;7.13;87.16
74270;BME280;62754;48.252;11.654;2022-11-18T07:02:57;94580.41;;;7.19;87.78
74270;BME280;62754;48.252;11.654;2022-11-18T07:05:23;94592.88;;;7.14;86.85
74270;BME280;62754;48.252;11.654;2022-11-18T07:07:48;94590.16;;;7.15;86.13
74270;BME280;62754;48.252;11.654;2022-11-18T07:10:14;94595.44;;;7.04;86.84
74270;BME280;62754;48.252;11.654;2022-11-18T07:12:40;94597.34;;;7.02;87.69
74270;BME280;62754;48.252;11.654;2022-11-18T07:15:06;94606.22;;;6.98;87.67
74270;BME280;62754;48.252;11.654;2022-11-18T07:17:32;94607.28;;;6.96;88.21
74270;BME280;62754;48.252;11.654;2022-11-18T07:19:58;94607.28;;;6.96;88.71
74270;BME280;62754;48.252;11.654;2022-11-18T07:22:24;94616.06;;;6.93;89.22
74270;BME280;62754;48.252;11.654;2022-11-18T07:24:49;94617.41;;;6.88;89.93
74270;BME280;62754;48.252;11.654;2022-11-18T07:27:15;94620.94;;;6.87;90.30
74270;BME280;62754;48.252;11.654;2022-11-18T07:29:41;94625.78;;;6.90;89.85
74270;BME280;62754;48.252;11.654;2022-11-18T07:32:07;94613.09;;;6.88;89.58
74270;BME280;62754;48.252;11.654;2022-11-18T07:34:32;94630.09;;;6.89;89.57
74270;BME280;62754;48.252;11.654;2022-11-18T07:36:58;94631.72;;;6.90;89.34
74270;BME280;62754;48.252;11.654;2022-11-18T07:39:24;94629.28;;;6.89;88.80
74270;BME280;62754;48.252;11.654;2022-11-18T07:41:50;94635.34;;;6.97;89.39
74270;BME280;62754;48.252;11.654;2022-11-18T07:44:15;94628.72;;;7.04;88.87
74270;BME280;62754;48.252;11.654;2022-11-18T07:46:41;94643.69;;;7.09;89.10
74270;BME280;62754;48.252;11.654;2022-11-18T07:49:08;94635.19;;;7.08;88.55
74270;BME280;62754;48.252;11.654;2022-11-18T07:51:35;94641.66;;;7.03;88.38
74270;BME280;62754;48.252;11.654;2022-11-18T07:54:12;94652.28;;;7.08;89.50
74270;BME280;62754;48.252;11.654;2022-11-18T07:56:39;94648.09;;;7.07;88.22
74270;BME280;62754;48.252;11.654;2022-11-18T07:59:06;94652.44;;;7.06;88.87
74270;BME280;62754;48.252;11.654;2022-11-18T08:01:32;94651.47;;;7.07;88.73
74270;BME280;62754;48.252;11.654;2022-11-18T08:04:04;94658.38;;;6.97;88.85
74270;BME280;62754;48.252;11.654;2022-11-18T08:06:31;94657.84;;;6.94;88.81
74270;BME280;62754;48.252;11.654;2022-11-18T08:08:57;94665.25;;;7.06;88.47
74270;BME280;62754;48.252;11.654;2022-11-18T08:11:23;94668.88;;;7.04;89.07
74270;BME280;62754;48.252;11.654;2022-11-18T08:13:50;94674.69;;;7.06;89.30
74270;BME280;62754;48.252;11.654;2022-11-18T08:16:18;94676.31;;;6.97;89.33
74270;BME280;62754;48.252;11.654;2022-11-18T08:18:45;94679.25;;;6.93;88.95
74270;BME280;62754;48.252;11.654;2022-11-18T08:21:11;94680.22;;;6.82;89.49
74270;BME280;62754;48.252;11.654;2022-11-18T08:23:38;94675.38;;;6.98;89.48
74270;BME280;62754;48.252;11.654;2022-11-18T08:26:07;94689.34;;;7.04;87.98
74270;BME280;62754;48.252;11.654;2022-11-18T08:28:33;94691.09;;;7.03;88.25
74270;BME280;62754;48.252;11.654;2022-11-18T08:30:59;94693.53;;;6.95;88.83
74270;BME280;62754;48.252;11.654;2022-11-18T08:33:24;94695.56;;;6.92;89.54
74270;BME280;62754;48.252;11.654;2022-11-18T08:35:50;94692.06;;;7.02;88.09
74270;BME280;62754;48.252;11.654;2022-11-18T08:38:17;94700.28;;;7.06;87.90
74270;BME280;62754;48.252;11.654;2022-11-18T08:40:45;94693.66;;;6.84;88.17
74270;BME280;62754;48.252;11.654;2022-11-18T08:43:12;94700.69;;;6.92;88.44
74270;BME280;62754;48.252;11.654;2022-11-18T08:45:41;94703.94;;;6.94;87.18
74270;BME280;62754;48.252;11.654;2022-11-18T08:48:06;94697.59;;;6.98;87.32
74270;BME280;62754;48.252;11.654;2022-11-18T08:50:32;94704.88;;;7.02;88.03
74270;BME280;62754;48.252;11.654;2022-11-18T08:52:58;94710.91;;;7.11;88.99
74270;BME280;62754;48.252;11.654;2022-11-18T08:55:24;94712.28;;;6.96;87.98
74270;BME280;62754;48.252;11.654;2022-11-18T08:57:50;94706.06;;;7.08;88.70
74270;BME280;62754;48.252;11.654;2022-11-18T09:00:16;94715.38;;;7.09;88.57
74270;BME280;62754;48.252;11.654;2022-11-18T09:02:42;94709.44;;;7.08;87.94
74270;BME280;62754;48.252;11.654;2022-11-18T09:05:08;94723.59;;;7.12;87.63
74270;BME280;62754;48.252;11.654;2022-11-18T09:07:33;94721.44;;;7.17;87.10
74270;BME280;62754;48.252;11.654;2022-11-18T09:09:59;94723.88;;;7.09;86.26
74270;BME280;62754;48.252;11.654;2022-11-18T09:12:25;94718.22;;;7.25;86.91
74270;BME280;62754;48.252;11.654;2022-11-18T09:14:50;94720.22;;;7.12;86.49
74270;BME280;62754;48.252;11.654;2022-11-18T09:17:16;94724.00;;;7.17;86.27
74270;BME280;62754;48.252;11.654;2022-11-18T09:19:42;94724.94;;;7.16;86.04
74270;BME280;62754;48.252;11.654;2022-11-18T09:22:08;94730.19;;;7.15;85.36
74270;BME280;62754;48.252;11.654;2022-11-18T09:24:34;94730.72;;;7.18;85.47
74270;BME280;62754;48.252;11.654;2022-11-18T09:27:04;94732.47;;;7.28;86.19
74270;BME280;62754;48.252;11.654;2022-11-18T09:29:30;94742.47;;;7.40;84.72
74270;BME280;62754;48.252;11.654;2022-11-18T09:31:56;94740.28;;;7.26;84.60
74270;BME280;62754;48.252;11.654;2022-11-18T09:34:22;94739.91;;;7.40;83.60
74270;BME280;62754;48.252;11.654;2022-11-18T09:36:48;94743.81;;;7.44;82.63
74270;BME280;62754;48.252;11.654;2022-11-18T09:39:14;94751.91;;;7.40;82.87
74270;BME280;62754;48.252;11.654;2022-11-18T09:41:45;94743.81;;;7.44;82.56
74270;BME280;62754;48.252;11.654;2022-11-18T09:49:30;94758.88;;;7.57;82.78
74270;BME280;62754;48.252;11.654;2022-11-18T09:52:01;94757.44;;;8.01;82.70
74270;BME280;62754;48.252;11.654;2022-11-18T09:54:31;94761.13;;;7.89;80.34
74270;BME280;62754;48.252;11.654;2022-11-18T09:56:58;94758.72;;;7.87;80.00
74270;BME280;62754;48.252;11.654;2022-11-18T09:59:27;94758.84;;;7.86;79.79
74270;BME280;62754;48.252;11.654;2022-11-18T10:04:37;94762.16;;;7.96;81.75
74270;BME280;62754;48.252;11.654;2022-11-18T10:07:12;94771.34;;;7.98;81.67
74270;BME280;62754;48.252;11.654;2022-11-18T10:09:40;94768.63;;;8.00;80.73
74270;BME280;62754;48.252;11.654;2022-11-18T10:15:02;94766.69;;;8.58;79.49
74270;BME280;62754;48.252;11.654;2022-11-18T10:20:26;94772.78;;;8.30;79.66
74270;BME280;62754;48.252;11.654;2022-11-18T10:23:03;94771.59;;;8.51;79.76
74270;BME280;62754;48.252;11.654;2022-11-18T10:25:32;94772.88;;;8.28;81.79
74270;BME280;62754;48.252;11.654;2022-11-18T10:28:11;94767.34;;;8.23;80.48
74270;BME280;62754;48.252;11.654;2022-11-18T10:30:38;94764.94;;;8.22;79.44
74270;BME280;62754;48.252;11.654;2022-11-18T10:35:48;94767.19;;;7.88;80.08
74270;BME280;62754;48.252;11.654;2022-11-18T10:40:47;94769.41;;;7.63;79.88
74270;BME280;62754;48.252;11.654;2022-11-18T10:46:32;94778.72;;;7.64;81.59
74270;BME280;62754;48.252;11.654;2022-11-18T10:51:33;94784.09;;;7.71;82.88
74270;BME280;62754;48.252;11.654;2022-11-18T10:54:06;94781.28;;;7.55;83.04
74270;BME280;62754;48.252;11.654;2022-11-18T10:56:44;94778.44;;;7.39;83.91
74270;BME280;62754;48.252;11.654;2022-11-18T10:59:34;94788.97;;;7.36;86.42
74270;BME280;62754;48.252;11.654;2022-11-18T11:02:16;94780.59;;;7.34;86.00
74270;BME280;62754;48.252;11.654;2022-11-18T11:04:44;94777.09;;;7.35;85.44
74270;BME280;62754;48.252;11.654;2022-11-18T11:09:58;94773.06;;;7.42;86.54
74270;BME280;62754;48.252;11.654;2022-11-18T11:12:26;94776.69;;;7.68;86.27
74270;BME280;62754;48.252;11.654;2022-11-18T11:14:55;94772.50;;;7.67;85.73
74270;BME280;62754;48.252;11.654;2022-11-18T11:17:38;94770.47;;;7.71;85.70
74270;BME280;62754;48.252;11.654;2022-11-18T11:20:25;94773.00;;;7.80;85.13
74270;BME280;62754;48.252;11.654;2022-11-18T11:22:53;94776.16;;;7.64;84.49
74270;BME280;62754;48.252;11.654;2022-11-18T11:25:47;94768.47;;;7.55;85.42
74270;BME280;62754;48.252;11.654;2022-11-18T11:28:39;94779.41;;;7.47;85.42
74270;BME280;62754;48.252;11.654;2022-11-18T11:31:09;94778.72;;;7.36;85.50
74270;BME280;62754;48.252;11.654;2022-11-18T11:39:18;94778.34;;;7.40;86.86
74270;BME280;62754;48.252;11.654;2022-11-18T11:42:05;94788.59;;;7.40;86.89
74270;BME280;62754;48.252;11.654;2022-11-18T11:50:12;94799.19;;;7.07;88.53
74270;BME280;62754;48.252;11.654;2022-11-18T11:55:29;94788.56;;;7.11;87.42
74270;BME280;62754;48.252;11.654;2022-11-18T11:58:15;94791.66;;;7.15;88.20
74270;BME280;62754;48.252;11.654;2022-11-18T12:00:50;94793.03;;;7.09;88.27
74270;BME280;62754;48.252;11.654;2022-11-18T12:03:46;94793.03;;;7.09;87.75
74270;BME280;62754;48.252;11.654;2022-11-18T12:06:12;94798.25;;;7.08;89.04
74270;BME280;62754;48.252;11.654;2022-11-18T12:08:49;94789.22;;;7.04;89.13
74270;BME280;62754;48.252;11.654;2022-11-18T12:11:30;94786.94;;;7.20;87.53
74270;BME280;62754;48.252;11.654;2022-11-18T12:14:02;94797.44;;;7.07;87.70
74270;BME280;62754;48.252;11.654;2022-11-18T12:16:42;94799.78;;;7.10;87.88
74270;BME280;62754;48.252;11.654;2022-11-18T12:19:15;94803.41;;;7.17;87.49
74270;BME280;62754;48.252;11.654;2022-11-18T12:26:46;94803.25;;;7.19;86.73
74270;BME280;62754;48.252;11.654;2022-11-18T12:31:45;94820.19;;;6.91;86.33
74270;BME280;62754;48.252;11.654;2022-11-18T12:34:30;94820.28;;;6.70;87.50
74270;BME280;62754;48.252;11.654;2022-11-18T12:42:51;94827.47;;;6.86;87.42
74270;BME280;62754;48.252;11.654;2022-11-18T12:48:26;94831.91;;;6.84;88.27
74270;BME280;62754;48.252;11.654;2022-11-18T12:53:37;94842.31;;;6.92;88.37
74270;BME280;62754;48.252;11.654;2022-11-18T12:56:11;94839.16;;;6.69;88.00
74270;BME280;62754;48.252;11.654;2022-11-18T13:01:20;94848.72;;;6.77;87.04
74270;BME280;62754;48.252;11.654;2022-11-18T13:03:46;94850.97;;;6.61;85.90
74270;BME280;62754;48.252;11.654;2022-11-18T13:06:27;94857.38;;;6.46;86.69
74270;BME280;62754;48.252;11.654;2022-11-18T13:08:57;94863.16;;;6.17;86.83
74270;BME280;62754;48.252;11.654;2022-11-18T13:11:25;94860.72;;;6.37;85.43
74270;BME280;62754;48.252;11.654;2022-11-18T13:13:52;94870.44;;;6.22;86.93
74270;BME280;62754;48.252;11.654;2022-11-18T13:18:51;94882.00;;;6.16;87.92
74270;BME280;62754;48.252;11.654;2022-11-18T13:21:26;94870.56;;;6.00;88.61
74270;BME280;62754;48.252;11.654;2022-11-18T13:23:59;94880.50;;;6.14;88.39
74270;BME280;62754;48.252;11.654;2022-11-18T13:26:32;94874.13;;;6.08;87.83
74270;BME280;62754;48.252;11.654;2022-11-18T13:34:45;94873.59;;;6.05;88.36
74270;BME280;62754;48.252;11.654;2022-11-18T13:37:16;94871.28;;;6.02;88.11
74270;BME280;62754;48.252;11.654;2022-11-18T13:39:43;94864.72;;;6.09;88.70
74270;BME280;62754;48.252;11.654;2022-11-18T13:42:24;94876.81;;;6.07;88.50
74270;BME280;62754;48.252;11.654;2022-11-18T13:44:58;94881.78;;;5.88;89.15
74270;BME280;62754;48.252;11.654;2022-11-18T13:47:43;94875.50;;;5.92;88.38
74270;BME280;62754;48.252;11.654;2022-11-18T13:50:13;94884.53;;;5.96;89.35
74270;BME280;62754;48.252;11.654;2022-11-18T13:52:43;94878.53;;;5.86;90.15
74270;BME280;62754;48.252;11.654;2022-11-18T13:55:20;94880.81;;;6.00;89.39
74270;BME280;62754;48.252;11.654;2022-11-18T13:57:53;94878.75;;;5.94;89.58
74270;BME280;62754;48.252;11.654;2022-11-18T14:00:25;94865.53;;;5.89;90.33
74270;BME280;62754;48.252;11.654;2022-11-18T14:03:00;94880.88;;;5.89;90.10
74270;BME280;62754;48.252;11.654;2022-11-18T14:05:27;94885.06;;;5.90;90.65
74270;BME280;62754;48.252;11.654;2022-11-18T14:08:04;94882.94;;;5.84;91.26
74270;BME280;62754;48.252;11.654;2022-11-18T14:10:43;94884.72;;;6.04;90.04
74270;BME280;62754;48.252;11.654;2022-11-18T14:13:19;94877.31;;;6.01;90.68
74270;BME280;62754;48.252;11.654;2022-11-18T14:15:46;94889.59;;;6.07;91.22
74270;BME280;62754;48.252;11.654;2022-11-18T14:18:28;94883.88;;;5.94;90.92
74270;BME280;62754;48.252;11.654;2022-11-18T14:20:54;94887.00;;;5.97;91.14
74270;BME280;62754;48.252;11.654;2022-11-18T14:23:31;94889.75;;;6.05;91.21
74270;BME280;62754;48.252;11.654;2022-11-18T14:25:58;94887.81;;;5.98;91.82
74270;BME280;62754;48.252;11.654;2022-11-18T14:28:30;94885.91;;;6.00;92.07
74270;BME280;62754;48.252;11.654;2022-11-18T14:33:27;94886.81;;;6.10;91.78
74270;BME280;62754;48.252;11.654;2022-11-18T14:35:59;94889.78;;;6.15;91.68
74270;BME280;62754;48.252;11.654;2022-11-18T14:41:03;94888.78;;;6.06;92.30
74270;BME280;62754;48.252;11.654;2022-11-18T14:43:29;94897.59;;;6.13;92.33
74270;BME280;62754;48.252;11.654;2022-11-18T14:46:00;94901.91;;;6.13;92.59
74270;BME280;62754;48.252;11.654;2022-11-18T14:48:27;94902.56;;;6.15;92.11
74270;BME280;62754;48.252;11.654;2022-11-18T14:50:53;94904.88;;;6.18;92.08
74270;BME280;62754;48.252;11.654;2022-11-18T14:53:19;94897.91;;;6.20;91.89
74270;BME280;62754;48.252;11.654;2022-11-18T14:55:48;94903.44;;;6.25;92.23